Time;durP1;ratioP1;P1;durP2;ratioP2;P2;SDS_P1;SDS_P2;PMS_P1;PMS_P2;Temp;Humidity;BMP_temperature;BMP_pressure;BME280_temperature;BME280_humidity;BME280_pressure;Samples;Min_cycle;Max_cycle;Signal;HPM_P1;HPM_P2
2022/04/03 00:00:24;;;;;;;12.63;7.72;;;;;;;9.25;100.00;149979.67;1792899;80;21127;-61
2022/04/03 00:02:51;;;;;;;12.43;8.10;;;;;;;9.23;100.00;149975.77;1792938;80;21100;-62
2022/04/03 00:05:19;;;;;;;11.15;8.13;;;;;;;9.22;100.00;149971.91;1823070;78;21008;-59
2022/04/03 00:07:47;;;;;;;11.53;7.67;;;;;;;9.21;100.00;149969.31;1828360;78;21489;-62
2022/04/03 00:10:17;;;;;;;11.68;8.30;;;;;;;9.17;100.00;149961.53;1829070;78;21027;-61
2022/04/03 00:12:46;;;;;;;13.88;8.45;;;;;;;9.14;100.00;149953.72;1821850;78;21219;-61
2022/04/03 00:15:14;;;;;;;15.90;9.28;;;;;;;9.11;100.00;149945.95;1811079;79;21031;-60
2022/04/03 00:17:42;;;;;;;14.95;9.10;;;;;;;9.11;100.00;149945.95;1811488;79;21000;-60
2022/04/03 00:20:11;;;;;;;14.83;8.98;;;;;;;9.10;100.00;149943.36;1811996;79;21040;-60
2022/04/03 00:22:39;;;;;;;18.10;9.90;;;;;;;9.10;100.00;149943.36;1811449;79;21521;-61
2022/04/03 00:25:08;;;;;;;16.57;9.13;;;;;;;9.11;100.00;149945.95;1811549;79;21446;-60
2022/04/03 00:27:35;;;;;;;15.95;9.68;;;;;;;9.13;100.00;149949.86;1811444;79;20973;-61
2022/04/03 00:30:03;;;;;;;15.93;9.90;;;;;;;9.13;100.00;149951.12;1811391;79;21064;-60
2022/04/03 00:32:30;;;;;;;14.90;9.78;;;;;;;9.14;100.00;149953.72;1811560;78;20973;-60
2022/04/03 00:34:58;;;;;;;18.45;10.75;;;;;;;9.13;100.00;149951.12;1811314;79;21044;-61
2022/04/03 00:37:26;;;;;;;17.42;10.08;;;;;;;9.11;100.00;149945.95;1811278;79;21219;-59
2022/04/03 00:39:53;;;;;;;16.00;10.65;;;;;;;9.11;100.00;149945.95;1810849;78;21024;-59
2022/04/03 00:42:20;;;;;;;17.95;11.70;;;;;;;9.14;100.00;149952.45;1811365;79;20969;-60
2022/04/03 00:44:47;;;;;;;18.35;11.55;;;;;;;9.15;100.00;149956.31;1811111;78;22034;-61
2022/04/03 00:47:15;;;;;;;16.73;11.10;;;;;;;9.16;100.00;149957.63;1811392;79;21736;-61
2022/04/03 00:49:43;;;;;;;15.63;10.53;;;;;;;9.15;100.00;149955.03;1811673;78;21113;-60
2022/04/03 00:52:11;;;;;;;16.70;10.65;;;;;;;9.14;100.00;149952.45;1811461;79;20996;-59
2022/04/03 00:54:40;;;;;;;17.55;10.82;;;;;;;9.14;100.00;149953.72;1811569;79;40934;-59
2022/04/03 00:57:08;;;;;;;18.37;11.33;;;;;;;9.14;100.00;149953.72;1811619;79;21289;-60
2022/04/03 00:59:35;;;;;;;14.78;10.00;;;;;;;9.10;100.00;149943.36;1811628;79;21028;-60
2022/04/03 01:02:03;;;;;;;16.57;10.68;;;;;;;9.09;100.00;149940.77;1811971;78;21434;-63
2022/04/03 01:04:31;;;;;;;15.90;10.50;;;;;;;9.09;100.00;148686.70;1811471;78;21422;-60
2022/04/03 01:06:58;;;;;;;14.05;9.28;;;;;;;9.08;100.00;145610.87;1811200;78;21577;-60
2022/04/03 01:09:27;;;;;;;16.57;10.35;;;;;;;9.06;100.00;136420.25;1811949;78;21481;-61
2022/04/03 01:11:56;;;;;;;14.85;9.48;;;;;;;9.02;100.00;132437.48;1811775;79;20987;-61
2022/04/03 01:14:38;;;;;;;15.65;10.20;;;;;;;9.00;100.00;121569.34;1811862;78;21879;-61
2022/04/03 01:17:07;;;;;;;16.50;10.85;;;;;;;8.96;100.00;122594.03;1811727;79;21027;-60
2022/04/03 01:19:35;;;;;;;17.70;11.07;;;;;;;8.93;100.00;117425.33;1811578;79;20940;-60
2022/04/03 01:22:03;;;;;;;16.12;10.20;;;;;;;8.91;100.00;116734.59;1811418;79;21134;-60
2022/04/03 01:24:30;;;;;;;16.90;10.68;;;;;;;8.88;100.00;115526.38;1811493;79;20929;-60
2022/04/03 01:26:58;;;;;;;16.15;10.03;;;;;;;8.85;100.00;114317.72;1810933;79;20987;-61
2022/04/03 01:29:26;;;;;;;17.32;10.48;;;;;;;8.83;100.00;110879.98;1811428;79;20966;-61
2022/04/03 01:31:53;;;;;;;17.10;10.15;;;;;;;8.82;100.00;106246.96;1811665;79;20991;-61
2022/04/03 01:34:21;;;;;;;15.10;10.03;;;;;;;8.81;100.00;104018.94;1811344;79;21079;-61
2022/04/03 01:36:49;;;;;;;16.73;10.28;;;;;;;8.80;100.00;100250.59;1811552;78;20944;-61
2022/04/03 01:39:16;;;;;;;17.02;10.45;;;;;;;8.78;100.00;97853.86;1812108;78;21398;-61
2022/04/03 01:41:43;;;;;;;15.65;10.05;;;;;;;8.77;100.00;96655.73;1811037;79;21892;-61
2022/04/03 01:44:11;;;;;;;17.00;10.72;;;;;;;8.74;100.00;93405.48;1811527;79;21075;-61
2022/04/03 01:46:38;;;;;;;17.45;10.95;;;;;;;8.74;100.00;91016.23;1811052;78;21028;-61
2022/04/03 01:49:06;;;;;;;19.32;11.48;;;;;;;8.74;100.00;87946.75;1811705;79;21054;-60
2022/04/03 01:51:33;;;;;;;17.10;10.95;;;;;;;8.75;100.00;86244.16;1811722;79;21911;-60
2022/04/03 01:54:01;;;;;;;19.82;11.68;;;;;;;8.77;100.00;85736.09;1811706;79;20996;-60
2022/04/03 01:56:28;;;;;;;17.37;11.50;;;;;;;8.77;100.00;86417.56;1811965;79;20973;-61
2022/04/03 01:58:56;;;;;;;16.35;9.93;;;;;;;8.73;100.00;88116.42;1810745;79;21838;-62
2022/04/03 02:01:24;;;;;;;14.35;9.70;;;;;;;8.74;100.00;86073.03;1811506;78;20953;-61
2022/04/03 02:03:51;;;;;;;17.10;10.60;;;;;;;8.77;100.00;84203.28;1810812;79;21111;-62
2022/04/03 02:06:22;;;;;;;18.37;10.78;;;;;;;8.75;100.00;84030.07;1811733;78;20972;-61
2022/04/03 02:08:49;;;;;;;16.20;10.18;;;;;;;8.73;100.00;81815.23;1810865;79;21473;-61
2022/04/03 02:11:17;;;;;;;15.50;10.25;;;;;;;8.74;100.00;79774.79;1811094;79;21059;-60
2022/04/03 02:13:46;;;;;;;15.48;10.28;;;;;;;8.73;100.00;79433.30;1815876;78;21552;-60
2022/04/03 02:16:15;;;;;;;17.45;10.35;;;;;;;8.73;100.00;78753.25;1820562;78;22552;-60
2022/04/03 02:18:44;;;;;;;17.35;10.63;;;;;;;8.74;100.00;76545.41;1820088;78;21054;-60
2022/04/03 02:21:11;;;;;;;17.52;10.63;;;;;;;8.75;100.00;75527.56;1820447;78;21059;-60
2022/04/03 02:23:40;;;;;;;17.20;10.40;;;;;;;8.75;100.00;76206.98;1820321;78;20936;-60
2022/04/03 02:26:07;;;;;;;16.07;10.40;;;;;;;8.74;100.00;78074.73;1820197;78;21590;-60
2022/04/03 02:28:35;;;;;;;16.02;9.83;;;;;;;8.77;100.00;76549.45;1820232;77;21377;-60
2022/04/03 02:31:02;;;;;;;15.83;9.90;;;;;;;8.79;100.00;79441.67;1819919;77;21351;-60
2022/04/03 02:33:29;;;;;;;15.08;10.05;;;;;;;8.82;100.00;84551.24;1820498;78;20928;-60
2022/04/03 02:35:56;;;;;;;15.20;9.43;;;;;;;8.84;100.00;89155.67;1820317;78;21019;-60
2022/04/03 02:38:24;;;;;;;14.30;9.80;;;;;;;8.91;100.00;88823.92;1820737;78;20980;-60
2022/04/03 02:40:51;;;;;;;13.68;8.98;;;;;;;8.94;100.00;95828.95;1820612;78;21298;-60
2022/04/03 02:43:18;;;;;;;15.00;9.38;;;;;;;8.94;100.00;111929.19;1820670;78;20952;-60
2022/04/03 02:45:46;;;;;;;14.33;8.95;;;;;;;8.94;100.00;126207.91;1820749;78;21007;-60
2022/04/03 02:48:15;;;;;;;19.67;9.85;;;;;;;8.94;100.00;136911.78;1820400;78;21063;-59
2022/04/03 02:50:43;;;;;;;14.25;8.90;;;;;;;8.97;100.00;149909.69;1820283;78;21054;-59
2022/04/03 02:53:11;;;;;;;16.35;9.85;;;;;;;8.97;100.00;149909.69;1820783;78;21219;-60
2022/04/03 02:55:38;;;;;;;15.28;9.65;;;;;;;8.98;100.00;149912.28;1820053;78;21611;-59
2022/04/03 02:58:05;;;;;;;16.50;10.23;;;;;;;9.01;100.00;149921.31;1819835;78;21012;-60
2022/04/03 03:00:35;;;;;;;14.37;9.90;;;;;;;9.03;100.00;149925.23;1820126;78;20929;-61
2022/04/03 03:03:06;;;;;;;15.18;9.85;;;;;;;8.99;100.00;149914.87;1820120;78;21039;-60
2022/04/03 03:05:34;;;;;;;19.55;10.38;;;;;;;8.95;100.00;149904.47;1820413;78;20948;-59
2022/04/03 03:08:03;;;;;;;18.62;10.80;;;;;;;8.91;100.00;149894.09;1819696;78;21003;-59
2022/04/03 03:10:32;;;;;;;15.35;9.35;;;;;;;8.91;100.00;149894.09;1819845;78;20900;-60
2022/04/03 03:12:59;;;;;;;15.48;8.88;;;;;;;8.87;100.00;149885.06;1819282;78;21092;-60
2022/04/03 03:15:28;;;;;;;13.15;9.30;;;;;;;8.87;100.00;149886.33;1819854;78;21063;-61
2022/04/03 03:17:55;;;;;;;14.47;8.23;;;;;;;8.92;100.00;149898.00;1819250;77;21170;-62
2022/04/03 03:20:24;;;;;;;15.58;9.23;;;;;;;8.95;100.00;149904.47;1820049;78;20980;-61
2022/04/03 03:22:51;;;;;;;13.38;8.88;;;;;;;8.95;100.00;149904.47;1819983;78;21080;-61
2022/04/03 03:25:18;;;;;;;14.73;9.20;;;;;;;8.93;100.00;149899.28;1820405;78;21183;-62
2022/04/03 03:27:49;;;;;;;13.08;8.78;;;;;;;8.92;100.00;149898.00;1820580;78;20916;-61
2022/04/03 03:30:19;;;;;;;15.20;9.38;;;;;;;8.89;100.00;149891.50;1820390;78;20956;-61
2022/04/03 03:32:47;;;;;;;14.05;9.28;;;;;;;8.86;100.00;149882.47;1819402;78;21049;-62
2022/04/03 03:35:15;;;;;;;14.58;9.43;;;;;;;8.84;100.00;149878.56;1819902;78;21532;-61
2022/04/03 03:37:44;;;;;;;15.70;9.03;;;;;;;8.91;100.00;149894.09;1819994;78;21046;-61
2022/04/03 03:40:11;;;;;;;15.90;10.08;;;;;;;8.94;100.00;149901.87;1819899;78;21000;-61
2022/04/03 03:42:40;;;;;;;16.70;9.68;;;;;;;8.94;100.00;149901.87;1820059;78;21234;-60
2022/04/03 03:45:11;;;;;;;15.83;10.28;;;;;;;8.93;100.00;149899.28;1820560;78;21045;-62
2022/04/03 03:47:38;;;;;;;16.75;10.53;;;;;;;8.93;100.00;149899.28;1819821;78;21453;-61
2022/04/03 03:50:06;;;;;;;16.97;9.98;;;;;;;8.95;100.00;149904.47;1819549;78;21577;-61
2022/04/03 03:52:34;;;;;;;17.75;9.48;;;;;;;8.94;100.00;149901.87;1819734;78;20917;-61
2022/04/03 03:55:01;;;;;;;18.40;9.95;;;;;;;8.89;100.00;149891.50;1803602;78;21115;-61
2022/04/03 03:57:28;;;;;;;17.95;9.98;;;;;;;8.86;100.00;149882.47;1781886;79;21426;-61
2022/04/03 03:59:56;;;;;;;14.75;9.05;;;;;;;8.85;100.00;149881.16;1781472;79;21032;-61
2022/04/03 04:02:23;;;;;;;13.45;8.53;;;;;;;8.84;100.00;149878.56;1781509;79;20978;-61
2022/04/03 04:04:52;;;;;;;15.93;8.73;;;;;;;8.82;100.00;149873.38;1794237;77;21639;-61
2022/04/03 04:07:19;;;;;;;20.72;10.28;;;;;;;8.80;100.00;149868.20;1819562;78;21111;-61
2022/04/03 04:09:47;;;;;;;20.92;11.05;;;;;;;8.79;100.00;149865.61;1819068;78;21461;-60
2022/04/03 04:12:14;;;;;;;18.82;9.98;;;;;;;8.74;100.00;149852.66;1819294;78;21486;-60
2022/04/03 04:14:43;;;;;;;20.08;10.70;;;;;;;8.70;100.00;149842.25;1813124;77;21200;-61
2022/04/03 04:17:11;;;;;;;19.17;9.60;;;;;;;8.67;100.00;149834.48;1810915;78;21292;-61
2022/04/03 04:19:40;;;;;;;20.27;9.70;;;;;;;8.70;100.00;149842.25;1810467;78;21892;-61
2022/04/03 04:22:08;;;;;;;19.98;10.08;;;;;;;8.72;100.00;149847.44;1810498;79;21070;-60
2022/04/03 04:24:36;;;;;;;17.75;9.43;;;;;;;8.74;100.00;149852.66;1810310;79;20992;-61
2022/04/03 04:27:04;;;;;;;17.52;10.48;;;;;;;8.76;100.00;149857.84;1776736;79;21044;-61
2022/04/03 04:29:31;;;;;;;18.75;10.98;;;;;;;8.75;100.00;149855.25;1810508;79;21035;-61
2022/04/03 04:32:00;;;;;;;22.75;11.18;;;;;;;8.78;100.00;149861.70;1810406;78;21039;-61
2022/04/03 04:34:27;;;;;;;15.15;9.28;;;;;;;8.79;100.00;149864.30;1810603;79;21016;-61
2022/04/03 04:36:55;;;;;;;17.02;10.13;;;;;;;8.78;100.00;149863.03;1810253;79;21044;-60
2022/04/03 04:39:22;;;;;;;15.88;9.10;;;;;;;8.77;100.00;149860.44;1811395;79;20948;-60
2022/04/03 04:41:50;;;;;;;14.60;8.85;;;;;;;8.79;100.00;149865.61;1811241;79;21059;-60
2022/04/03 04:44:17;;;;;;;17.35;9.43;;;;;;;8.82;100.00;149873.38;1811259;79;21461;-60
2022/04/03 04:46:46;;;;;;;16.37;9.10;;;;;;;8.86;100.00;149883.73;1811613;79;20937;-60
2022/04/03 04:49:14;;;;;;;17.32;9.10;;;;;;;8.92;100.00;149896.69;1811279;79;21000;-60
2022/04/03 04:51:41;;;;;;;14.40;8.65;;;;;;;8.96;100.00;149908.38;1811970;79;21111;-60
2022/04/03 04:54:09;;;;;;;15.85;8.40;;;;;;;9.03;100.00;149925.23;1811227;79;21027;-60
2022/04/03 04:56:39;;;;;;;15.68;8.38;;;;;;;9.09;100.00;149940.77;1811328;78;20969;-60
2022/04/03 04:59:07;;;;;;;14.73;8.78;;;;;;;9.15;100.00;149956.31;1811645;78;21044;-60
2022/04/03 05:01:36;;;;;;;16.23;8.68;;;;;;;9.17;100.00;149961.53;1811679;78;21039;-59
2022/04/03 05:04:04;;;;;;;18.48;8.98;;;;;;;9.22;100.00;149971.91;1811425;79;20955;-60
2022/04/03 05:06:32;;;;;;;17.07;7.80;;;;;;;9.24;100.00;149977.08;1811791;79;20918;-60
2022/04/03 05:08:59;;;;;;;11.93;7.55;;;;;;;9.22;100.00;149971.91;1811532;79;21886;-60
2022/04/03 05:11:27;;;;;;;15.75;7.62;;;;;;;9.20;100.00;149968.00;1811813;79;21398;-60
2022/04/03 05:13:55;;;;;;;16.85;8.43;;;;;;;9.15;100.00;149956.31;1811605;78;21139;-60
2022/04/03 05:16:22;;;;;;;14.38;7.97;;;;;;;9.09;100.00;149940.77;1811540;78;21059;-61
2022/04/03 05:18:52;;;;;;;17.37;7.75;;;;;;;9.03;100.00;149926.50;1811121;79;20993;-60
2022/04/03 05:21:19;;;;;;;12.33;7.45;;;;;;;8.98;100.00;149913.55;1811242;79;21222;-60
2022/04/03 05:23:47;;;;;;;13.93;8.48;;;;;;;8.92;100.00;149896.69;1809997;78;21015;-63
2022/04/03 05:26:15;;;;;;;14.05;8.08;;;;;;;8.87;100.00;149885.06;1803284;79;21644;-60
2022/04/03 05:28:45;;;;;;;14.07;8.73;;;;;;;8.80;100.00;149866.88;1810123;79;21453;-60
2022/04/03 05:31:12;;;;;;;13.03;8.00;;;;;;;8.78;100.00;149861.70;1809728;79;21083;-60
2022/04/03 05:33:39;;;;;;;14.55;8.83;;;;;;;8.85;100.00;149881.16;1810164;79;21782;-60
2022/04/03 05:36:06;;;;;;;11.75;7.92;;;;;;;9.01;100.00;149921.31;1810368;79;21474;-61
2022/04/03 05:38:34;;;;;;;13.22;7.33;;;;;;;9.17;100.00;149960.22;1811180;79;20929;-59
2022/04/03 05:41:01;;;;;;;11.20;7.20;;;;;;;9.26;100.00;149983.53;1810862;78;21078;-59
2022/04/03 05:43:28;;;;;;;12.73;7.92;;;;;;;9.31;100.00;149995.22;1811529;78;20998;-60
2022/04/03 05:45:56;;;;;;;11.73;7.83;;;;;;;9.37;100.00;150010.77;1811223;79;21218;-60
2022/04/03 05:48:23;;;;;;;11.00;7.10;;;;;;;9.46;100.00;150034.13;1811538;79;21047;-60
2022/04/03 05:50:50;;;;;;;11.35;7.12;;;;;;;9.51;100.00;150044.48;1811432;79;21012;-60
2022/04/03 05:53:17;;;;;;;11.73;6.90;;;;;;;9.54;100.00;150052.27;1811158;79;21076;-59
2022/04/03 05:55:47;;;;;;;10.05;6.42;;;;;;;9.54;100.00;150052.27;1811063;78;20999;-59
2022/04/03 05:58:14;;;;;;;11.55;6.40;;;;;;;9.56;100.00;150058.77;1811558;78;21231;-60
2022/04/03 06:00:41;;;;;;;10.00;6.95;;;;;;;9.55;100.00;150054.86;1812045;79;20960;-60
2022/04/03 06:03:08;;;;;;;9.08;6.45;;;;;;;9.57;100.00;150060.03;1811436;78;20992;-60
2022/04/03 06:05:38;;;;;;;10.70;6.40;;;;;;;9.59;100.00;150065.22;1811659;79;20981;-60
2022/04/03 06:08:06;;;;;;;11.65;7.58;;;;;;;9.64;100.00;150076.91;1811178;79;21600;-60
2022/04/03 06:10:34;;;;;;;11.10;7.25;;;;;;;9.67;100.00;150086.00;1811743;78;21202;-60
2022/04/03 06:13:06;;;;;;;8.83;6.47;;;;;;;9.70;100.00;150093.78;1811452;79;20992;-60
2022/04/03 06:15:43;;;;;;;11.00;6.65;;;;;;;9.71;100.00;150096.36;1816949;78;20964;-61
2022/04/03 06:18:14;;;;;;;9.00;6.15;;;;;;;9.73;100.00;150101.55;1819917;78;22059;-61
2022/04/03 06:20:41;;;;;;;9.83;6.60;;;;;;;9.73;100.00;150101.55;1819690;78;21496;-61
2022/04/03 06:23:15;;;;;;;9.98;6.62;;;;;;;9.71;100.00;150096.36;1820085;78;22043;-60
2022/04/03 06:25:43;;;;;;;9.10;6.17;;;;;;;9.68;100.00;150088.59;1819655;78;21058;-60
2022/04/03 06:28:11;;;;;;;10.18;6.40;;;;;;;9.63;100.00;150075.64;1819521;77;21015;-61
2022/04/03 06:30:38;;;;;;;8.08;5.92;;;;;;;9.62;100.00;150073.05;1820354;78;20987;-60
2022/04/03 06:33:05;;;;;;;10.20;5.78;;;;;;;9.62;99.79;150071.72;1820073;78;21050;-61
2022/04/03 06:35:34;;;;;;;9.40;6.10;;;;;;;9.67;99.16;150086.00;1820358;78;20891;-60
2022/04/03 06:38:01;;;;;;;9.68;6.12;;;;;;;9.78;98.89;150113.23;1819675;78;21054;-60
2022/04/03 06:40:29;;;;;;;9.55;6.33;;;;;;;9.99;98.80;150166.39;1820383;78;20969;-61
2022/04/03 06:42:56;;;;;;;8.58;5.97;;;;;;;10.31;98.28;150246.84;1820349;77;20980;-61
2022/04/03 06:45:24;;;;;;;8.30;5.65;;;;;;;10.64;96.77;150327.33;1820199;78;21070;-61
2022/04/03 06:47:51;;;;;;;9.98;5.67;;;;;;;10.92;95.73;150398.72;1820011;78;21880;-61
2022/04/03 06:50:20;;;;;;;8.83;6.08;;;;;;;11.16;94.10;150459.75;1820198;78;21496;-62
2022/04/03 06:52:47;;;;;;;7.72;5.47;;;;;;;11.40;92.46;150519.47;1820242;78;21595;-59
2022/04/03 06:55:14;;;;;;;9.48;5.80;;;;;;;11.63;91.34;150575.28;1820299;78;21094;-61
2022/04/03 06:57:42;;;;;;;10.65;6.47;;;;;;;11.80;90.01;150618.12;1820769;78;20895;-61
2022/04/03 07:00:13;;;;;;;9.45;7.08;;;;;;;11.86;89.16;150633.75;1820245;78;21454;-60
2022/04/03 07:02:39;;;;;;;9.88;6.80;;;;;;;11.87;88.36;150636.34;1820727;78;20877;-59
2022/04/03 07:05:09;;;;;;;10.38;7.53;;;;;;;11.77;88.46;150610.34;1820155;78;20991;-60
2022/04/03 07:07:37;;;;;;;14.18;9.23;;;;;;;11.68;89.02;150589.58;1820796;78;20936;-59
2022/04/03 07:10:07;;;;;;;17.82;10.35;;;;;;;11.55;89.58;150555.80;1820018;78;20975;-60
2022/04/03 07:12:37;;;;;;;15.15;9.75;;;;;;;11.36;89.64;150509.05;1820521;78;21383;-61
2022/04/03 07:15:11;;;;;;;16.45;11.33;;;;;;;11.21;90.38;150470.12;1816466;78;21039;-60
2022/04/03 07:17:36;;;;;;;15.68;10.90;;;;;;;11.04;90.54;150428.58;1811574;79;20971;-61
2022/04/03 07:20:06;;;;;;;15.18;10.18;;;;;;;10.86;90.48;150384.44;1811232;78;21066;-63
2022/04/03 07:22:33;;;;;;;16.25;10.58;;;;;;;10.76;91.40;150358.50;1811776;78;21094;-61
2022/04/03 07:25:00;;;;;;;17.67;11.50;;;;;;;10.71;91.31;150345.48;1811083;78;21185;-61
2022/04/03 07:27:28;;;;;;;15.35;10.65;;;;;;;10.65;91.45;150329.92;1811472;79;21071;-60
2022/04/03 07:29:55;;;;;;;16.87;11.10;;;;;;;10.59;91.87;150316.95;1811096;79;21584;-61
2022/04/03 07:32:22;;;;;;;16.23;11.25;;;;;;;10.58;92.38;150314.36;1811986;79;20997;-61
2022/04/03 07:34:50;;;;;;;16.82;11.93;;;;;;;10.59;92.17;150316.95;1811703;77;20940;-64
2022/04/03 07:37:17;;;;;;;19.27;12.45;;;;;;;10.56;92.43;150309.17;1811423;79;21115;-59
2022/04/03 07:39:44;;;;;;;19.10;13.30;;;;;;;10.56;92.68;150309.17;1811272;79;21078;-60
2022/04/03 07:42:12;;;;;;;18.62;12.98;;;;;;;10.51;92.95;150296.20;1811512;79;21023;-61
2022/04/03 07:44:39;;;;;;;20.65;13.22;;;;;;;10.51;93.05;150296.20;1811429;78;21413;-61
2022/04/03 07:47:06;;;;;;;19.73;13.58;;;;;;;10.53;93.22;150301.39;1811069;79;21438;-61
2022/04/03 07:49:33;;;;;;;19.40;13.62;;;;;;;10.58;93.39;150314.36;1811541;79;21223;-63
2022/04/03 07:52:01;;;;;;;22.85;15.75;;;;;;;10.69;93.35;150340.30;1811187;79;21000;-62
2022/04/03 07:54:29;;;;;;;20.80;14.07;;;;;;;10.84;92.96;150377.97;1811936;79;21028;-62
2022/04/03 07:56:58;;;;;;;24.52;17.75;;;;;;;11.00;91.50;150418.20;1811377;79;20968;-62
2022/04/03 07:59:25;;;;;;;25.90;18.98;;;;;;;11.03;90.56;150425.98;1811771;79;21098;-60
2022/04/03 08:02:30;;;;;;;26.70;19.30;;;;;;;11.04;89.41;150428.58;1810887;78;22127;-60
2022/04/03 08:05:05;;;;;;;24.23;16.85;;;;;;;10.99;89.20;150415.59;1799683;78;21033;-60
2022/04/03 08:07:40;;;;;;;21.80;16.05;;;;;;;11.03;89.83;150427.25;1770911;79;22721;-60
2022/04/03 08:10:10;;;;;;;25.62;17.15;;;;;;;11.08;89.53;150438.94;1770663;79;21025;-60
2022/04/03 08:12:42;;;;;;;23.92;17.25;;;;;;;11.06;88.99;150433.77;1770654;81;21001;-60
2022/04/03 08:15:11;;;;;;;23.57;16.70;;;;;;;11.04;89.08;150429.84;1786836;78;21628;-61
2022/04/03 08:17:39;;;;;;;22.87;16.23;;;;;;;11.03;88.96;150427.25;1819114;78;20976;-60
2022/04/03 08:20:09;;;;;;;22.90;16.65;;;;;;;10.95;87.98;150405.22;1819164;78;21082;-62
2022/04/03 08:22:39;;;;;;;22.85;16.27;;;;;;;10.87;88.50;150387.02;1819804;77;21484;-62
2022/04/03 08:25:07;;;;;;;26.37;16.00;;;;;;;10.83;88.75;150375.33;1819500;78;21014;-62
2022/04/03 08:27:49;;;;;;;21.40;15.10;;;;;;;10.79;89.21;150366.28;1819393;78;21226;-62
2022/04/03 08:30:23;;;;;;;19.57;14.63;;;;;;;10.73;88.96;150350.72;1819448;78;22224;-61
2022/04/03 08:32:51;;;;;;;17.57;13.15;;;;;;;10.67;89.45;150336.42;1819605;77;21019;-61
2022/04/03 08:35:19;;;;;;;18.32;12.63;;;;;;;10.60;89.66;150319.55;1820005;78;21270;-61
2022/04/03 08:37:47;;;;;;;19.25;12.73;;;;;;;10.55;90.27;150306.58;1819527;77;21095;-60
2022/04/03 08:40:17;;;;;;;17.00;11.60;;;;;;;10.47;90.34;150285.78;1819483;78;21214;-61
2022/04/03 08:42:44;;;;;;;17.07;11.30;;;;;;;10.34;90.52;150252.03;1819556;78;20905;-61
2022/04/03 08:45:12;;;;;;;17.05;11.30;;;;;;;10.24;90.83;150228.66;1819458;78;21090;-61
2022/04/03 08:47:50;;;;;;;16.27;9.98;;;;;;;10.14;91.08;150202.73;1819696;78;20924;-61
2022/04/03 08:50:18;;;;;;;16.65;10.53;;;;;;;10.04;91.65;150179.34;1819566;78;21670;-62
2022/04/03 08:52:50;;;;;;;15.10;9.88;;;;;;;9.91;91.81;150145.66;1819716;78;21470;-62
2022/04/03 08:55:18;;;;;;;16.93;10.20;;;;;;;9.82;92.07;150122.28;1820079;78;21090;-60
2022/04/03 08:57:45;;;;;;;14.00;9.53;;;;;;;9.82;92.40;150122.28;1819969;77;20865;-61
2022/04/03 09:00:14;;;;;;;18.55;10.32;;;;;;;9.90;92.45;150143.06;1819921;78;21023;-60
2022/04/03 09:02:45;;;;;;;16.05;10.10;;;;;;;9.93;91.57;150149.52;1820250;78;20979;-62
2022/04/03 09:05:14;;;;;;;16.87;11.03;;;;;;;9.93;91.44;150150.84;1819894;78;21213;-61
2022/04/03 09:07:42;;;;;;;18.25;10.82;;;;;;;9.99;91.93;150166.39;1819859;78;20925;-62
2022/04/03 09:10:16;;;;;;;15.85;10.48;;;;;;;10.08;91.50;150187.17;1819466;77;21031;-62
2022/04/03 09:12:51;;;;;;;13.62;9.33;;;;;;;10.22;91.49;150223.47;1820276;78;20924;-61
2022/04/03 09:15:21;;;;;;;15.63;10.30;;;;;;;10.41;90.99;150270.23;1820195;78;20931;-62
2022/04/03 09:17:52;;;;;;;15.78;10.50;;;;;;;10.59;90.76;150315.63;1819798;78;21226;-61
2022/04/03 09:20:24;;;;;;;14.63;9.90;;;;;;;10.83;89.96;150375.33;1820122;78;21022;-59
2022/04/03 09:22:55;;;;;;;15.23;11.05;;;;;;;10.98;87.47;150413.00;1820256;78;21444;-60
2022/04/03 09:25:32;;;;;;;16.10;11.43;;;;;;;11.00;87.30;150418.20;1788609;78;21011;-62
2022/04/03 09:28:01;;;;;;;15.05;10.60;;;;;;;11.00;87.03;150419.47;1820325;78;21042;-60
2022/04/03 09:30:41;;;;;;;16.48;9.63;;;;;;;10.93;86.42;150400.00;1820526;78;21233;-60
2022/04/03 09:33:09;;;;;;;14.90;10.53;;;;;;;10.79;85.73;150366.28;1820091;77;21070;-60
2022/04/03 09:35:59;;;;;;;15.38;10.00;;;;;;;10.63;85.85;150326.05;1820115;78;20979;-62
2022/04/03 09:38:27;;;;;;;13.50;8.93;;;;;;;10.54;86.46;150302.66;1820325;77;20991;-60
2022/04/03 09:40:55;;;;;;;13.78;9.55;;;;;;;10.51;86.06;150296.20;1820339;78;21067;-60
2022/04/03 09:43:30;;;;;;;13.58;9.90;;;;;;;10.41;85.86;150271.55;1819978;78;21202;-61
2022/04/03 09:45:59;;;;;;;13.48;9.20;;;;;;;10.26;85.76;150233.84;1819743;78;20987;-60
2022/04/03 09:48:29;;;;;;;13.85;9.85;;;;;;;10.13;86.42;150200.13;1820429;78;21023;-61
2022/04/03 09:51:21;;;;;;;13.58;10.32;;;;;;;9.96;86.96;150158.61;1820476;78;20963;-62
2022/04/03 09:54:01;;;;;;;14.45;9.78;;;;;;;9.84;87.85;150128.78;1819838;78;21537;-61
2022/04/03 09:56:34;;;;;;;13.50;9.83;;;;;;;9.83;88.34;150124.87;1819984;78;21277;-61
2022/04/03 09:59:03;;;;;;;14.93;10.45;;;;;;;9.77;87.72;150110.64;1820524;78;21015;-61
2022/04/03 10:01:40;;;;;;;14.30;10.28;;;;;;;9.65;87.86;150080.81;1820599;78;20976;-61
2022/04/03 10:04:14;;;;;;;13.85;10.35;;;;;;;9.59;88.27;150065.22;1819401;78;21043;-59
2022/04/03 10:06:43;;;;;;;14.05;9.70;;;;;;;9.59;88.22;150066.53;1820291;78;20934;-60
2022/04/03 10:09:14;;;;;;;14.75;10.48;;;;;;;9.64;88.35;150078.22;1820569;78;21917;-62
2022/04/03 10:11:42;;;;;;;15.75;10.48;;;;;;;9.78;88.19;150111.91;1820462;77;21303;-62
2022/04/03 10:14:11;;;;;;;12.75;9.10;;;;;;;9.89;87.07;150141.75;1820356;78;21023;-61
2022/04/03 10:16:40;;;;;;;14.30;9.30;;;;;;;10.01;86.60;150171.58;1815110;78;21023;-61
2022/04/03 10:19:07;;;;;;;13.95;9.68;;;;;;;10.16;85.34;150207.91;1778661;79;21047;-60
2022/04/03 10:21:43;;;;;;;13.13;9.20;;;;;;;10.22;84.79;150222.19;1778252;79;21440;-61
2022/04/03 10:24:21;;;;;;;12.90;9.73;;;;;;;10.19;83.66;150215.69;1811777;79;21022;-60
2022/04/03 10:26:58;;;;;;;13.80;9.60;;;;;;;10.16;84.10;150207.91;1811653;79;21012;-62
2022/04/03 10:29:25;;;;;;;14.25;9.50;;;;;;;10.15;83.89;150205.31;1780114;79;21051;-63
2022/04/03 10:32:03;;;;;;;15.78;10.72;;;;;;;10.20;83.95;150217.02;1811305;79;20977;-61
2022/04/03 10:34:27;;;;;;;14.23;9.88;;;;;;;10.25;83.30;150231.25;1810205;78;21222;-61
2022/04/03 10:36:54;;;;;;;14.35;9.73;;;;;;;10.24;83.24;150228.66;1811703;79;20987;-61
2022/04/03 10:39:29;;;;;;;14.68;9.75;;;;;;;10.23;83.40;150224.78;1811716;79;21008;-60
2022/04/03 10:42:20;;;;;;;18.00;10.50;;;;;;;10.27;82.97;150236.44;1811586;78;21015;-59
2022/04/03 10:45:11;;;;;;;14.95;9.23;;;;;;;10.28;82.88;150239.08;1811834;78;20996;-62
2022/04/03 10:47:40;;;;;;;15.08;10.03;;;;;;;10.19;82.90;150215.69;1812096;79;21186;-60
2022/04/03 10:50:09;;;;;;;12.47;8.70;;;;;;;10.12;83.37;150198.81;1812183;79;21031;-60
2022/04/03 10:52:42;;;;;;;12.13;8.53;;;;;;;10.14;82.78;150202.73;1812116;79;20976;-60
2022/04/03 10:55:25;;;;;;;11.08;8.20;;;;;;;10.17;82.73;150210.50;1810811;79;21063;-61
2022/04/03 10:58:02;;;;;;;10.78;7.50;;;;;;;10.26;82.21;150232.56;1811193;79;20929;-61
2022/04/03 11:00:30;;;;;;;10.38;6.97;;;;;;;10.35;81.99;150254.63;1811573;79;21916;-61
2022/04/03 11:03:01;;;;;;;9.53;6.47;;;;;;;10.42;81.42;150272.83;1811788;79;20951;-59
2022/04/03 11:05:34;;;;;;;8.98;5.97;;;;;;;10.38;80.99;150262.41;1811148;79;21069;-60
2022/04/03 11:08:11;;;;;;;8.53;6.45;;;;;;;10.34;81.08;150252.03;1810908;78;21067;-62
2022/04/03 11:11:01;;;;;;;8.23;6.20;;;;;;;10.37;80.05;150259.81;1811150;79;21051;-59
2022/04/03 11:13:35;;;;;;;9.43;6.58;;;;;;;10.35;77.74;150254.63;1777390;79;21073;-62
2022/04/03 11:16:11;;;;;;;8.28;6.40;;;;;;;10.32;76.77;150249.44;1810767;78;21422;-60
2022/04/03 11:18:47;;;;;;;8.58;6.65;;;;;;;10.26;75.31;150233.84;1811287;79;21017;-62
2022/04/03 11:21:34;;;;;;;9.43;7.20;;;;;;;10.12;74.88;150198.81;1810565;79;21023;-60
2022/04/03 11:24:12;;;;;;;9.60;6.62;;;;;;;9.94;73.93;150153.44;1810283;79;21028;-60
2022/04/03 11:26:43;;;;;;;8.53;6.17;;;;;;;9.78;74.21;150113.23;1811569;79;21775;-59